createdAt,value
2022-09-01T00:00:30.212Z,16.38
2022-09-01T00:15:36.105Z,16.31
2022-09-01T00:30:41.996Z,16.25
2022-09-01T00:45:47.751Z,16.81
2022-09-01T01:00:55.116Z,17.19
2022-09-01T01:16:01.555Z,17.31
2022-09-01T01:31:12.823Z,17.44
2022-09-01T01:46:19.748Z,17.38
2022-09-01T02:01:29.436Z,17.56
2022-09-01T02:16:35.788Z,17.31
2022-09-01T02:31:42.103Z,17.44
2022-09-01T02:46:49.441Z,17.19
2022-09-01T03:01:56.599Z,17.13
2022-09-01T03:17:02.200Z,16.88
2022-09-01T03:32:08.506Z,16.88
2022-09-01T03:47:15.528Z,16.69
2022-09-01T04:02:22.196Z,16.50
2022-09-01T04:17:48.213Z,16.63
2022-09-01T04:32:56.425Z,16.38
2022-09-01T04:48:03.234Z,16.06
2022-09-01T05:03:10.524Z,15.94
2022-09-01T05:18:23.593Z,16.06
2022-09-01T05:33:29.333Z,16.13
2022-09-01T05:48:40.358Z,16.31
2022-09-01T06:03:46.767Z,16.75
2022-09-01T06:18:54.487Z,17.00
2022-09-01T06:34:02.145Z,17.38
2022-09-01T06:49:11.799Z,18.31
2022-09-01T07:04:21.796Z,17.88
2022-09-01T07:19:48.261Z,17.88
2022-09-01T07:34:54.539Z,17.69
2022-09-01T07:50:24.711Z,17.69
2022-09-01T08:05:29.207Z,18.00
2022-09-01T08:20:38.106Z,18.19
2022-09-01T08:35:47.509Z,18.25
2022-09-01T08:50:57.820Z,18.56
2022-09-01T09:06:16.743Z,18.88
2022-09-01T09:21:26.945Z,19.56
2022-09-01T09:36:38.359Z,20.19
2022-09-01T09:51:49.015Z,20.44
2022-09-01T10:06:55.919Z,20.94
2022-09-01T10:22:02.016Z,21.00
2022-09-01T10:37:11.718Z,21.19
2022-09-01T10:53:16.993Z,20.81
2022-09-01T11:08:42.521Z,20.50
2022-09-01T11:24:34.636Z,20.69
2022-09-01T11:39:52.399Z,20.75
2022-09-01T11:54:58.974Z,21.00
2022-09-01T12:10:05.321Z,21.13
2022-09-01T12:25:23.069Z,21.25
2022-09-01T12:40:36.546Z,22.13
2022-09-01T12:55:49.732Z,22.25
2022-09-01T13:10:57.467Z,22.38
2022-09-01T13:26:04.037Z,22.19
2022-09-01T13:41:11.659Z,22.44
2022-09-01T13:56:17.573Z,22.19
2022-09-01T14:11:23.186Z,22.00
2022-09-01T14:26:28.942Z,21.88
2022-09-01T14:41:35.041Z,21.44
2022-09-01T14:56:42.045Z,21.13
2022-09-01T15:11:48.208Z,20.81
2022-09-01T15:26:53.785Z,20.75
2022-09-01T15:41:59.463Z,20.56
2022-09-01T15:57:05.636Z,20.38
2022-09-01T16:12:11.842Z,20.44
2022-09-01T16:27:22.167Z,20.44
2022-09-01T16:42:33.167Z,20.31
2022-09-01T16:57:45.502Z,20.00
2022-09-01T17:12:53.562Z,19.75
2022-09-01T17:28:02.950Z,19.63
2022-09-01T17:43:18.383Z,19.56
2022-09-01T17:58:46.854Z,19.38
2022-09-01T18:13:57.727Z,19.19
2022-09-01T18:29:06.929Z,19.13
2022-09-01T18:44:26.823Z,18.94
2022-09-01T18:59:58.228Z,18.94
2022-09-01T19:15:11.696Z,18.81
2022-09-01T19:30:18.293Z,18.75
2022-09-01T19:45:29.473Z,18.63
2022-09-01T20:00:51.203Z,18.56
2022-09-01T20:16:06.168Z,18.44
2022-09-01T20:31:18.569Z,18.31
2022-09-01T20:46:26.350Z,18.13
2022-09-01T21:01:38.767Z,17.94
2022-09-01T21:16:54.696Z,17.94
2022-09-01T21:32:01.320Z,17.75
2022-09-01T21:47:07.840Z,17.75
2022-09-01T22:02:14.132Z,17.75
2022-09-01T22:17:20.612Z,17.69
2022-09-01T22:32:28.792Z,17.63
2022-09-01T22:47:38.621Z,17.69
2022-09-01T23:02:45.166Z,17.63
2022-09-01T23:17:50.806Z,17.44
2022-09-01T23:32:56.814Z,17.38
2022-09-01T23:48:04.533Z,17.38
